sensor_id;sensor_type;location;lat;lon;timestamp;temperature;humidity
54796;DHT22;40693;43.884;20.340;2022-10-16T00:00:38;307.60;2304.00
54796;DHT22;40693;43.884;20.340;2022-10-16T00:03:05;308.00;2304.00
54796;DHT22;40693;43.884;20.340;2022-10-16T00:05:31;307.90;2304.00
54796;DHT22;40693;43.884;20.340;2022-10-16T00:07:57;307.90;2304.00
54796;DHT22;40693;43.884;20.340;2022-10-16T00:10:23;307.90;2304.00
54796;DHT22;40693;43.884;20.340;2022-10-16T00:12:49;307.80;2304.00
54796;DHT22;40693;43.884;20.340;2022-10-16T00:15:15;307.90;2304.00
54796;DHT22;40693;43.884;20.340;2022-10-16T00:17:41;307.90;2304.00
54796;DHT22;40693;43.884;20.340;2022-10-16T00:20:08;307.90;2304.00
54796;DHT22;40693;43.884;20.340;2022-10-16T00:22:33;307.90;2304.00
54796;DHT22;40693;43.884;20.340;2022-10-16T00:24:59;307.90;2304.00
54796;DHT22;40693;43.884;20.340;2022-10-16T00:27:25;307.90;2304.00
54796;DHT22;40693;43.884;20.340;2022-10-16T00:29:51;307.90;2304.00
54796;DHT22;40693;43.884;20.340;2022-10-16T00:32:18;307.90;2304.00
54796;DHT22;40693;43.884;20.340;2022-10-16T00:34:45;307.80;2304.00
54796;DHT22;40693;43.884;20.340;2022-10-16T00:37:11;307.80;2304.00
54796;DHT22;40693;43.884;20.340;2022-10-16T00:39:37;307.80;2304.00
54796;DHT22;40693;43.884;20.340;2022-10-16T00:42:03;307.80;2304.00
54796;DHT22;40693;43.884;20.340;2022-10-16T00:44:53;307.80;2304.00
54796;DHT22;40693;43.884;20.340;2022-10-16T00:47:42;307.90;2304.00
54796;DHT22;40693;43.884;20.340;2022-10-16T00:50:29;307.80;2304.00
54796;DHT22;40693;43.884;20.340;2022-10-16T00:52:56;307.80;2304.00
54796;DHT22;40693;43.884;20.340;2022-10-16T00:55:23;307.80;2304.00
54796;DHT22;40693;43.884;20.340;2022-10-16T00:57:50;307.80;2304.00
54796;DHT22;40693;43.884;20.340;2022-10-16T01:00:20;307.80;2304.00
54796;DHT22;40693;43.884;20.340;2022-10-16T01:02:58;307.80;2304.00
54796;DHT22;40693;43.884;20.340;2022-10-16T01:05:44;307.80;2304.00
54796;DHT22;40693;43.884;20.340;2022-10-16T01:08:18;307.80;2304.00
54796;DHT22;40693;43.884;20.340;2022-10-16T01:10:59;307.80;2304.00
54796;DHT22;40693;43.884;20.340;2022-10-16T01:13:35;307.80;2304.00
54796;DHT22;40693;43.884;20.340;2022-10-16T01:16:17;307.80;2304.00
54796;DHT22;40693;43.884;20.340;2022-10-16T01:18:54;307.80;2304.00
54796;DHT22;40693;43.884;20.340;2022-10-16T01:21:28;307.70;2304.00
54796;DHT22;40693;43.884;20.340;2022-10-16T01:24:20;307.70;2304.00
54796;DHT22;40693;43.884;20.340;2022-10-16T01:37:51;307.60;2304.00
54796;DHT22;40693;43.884;20.340;2022-10-16T01:40:20;307.60;2304.00
54796;DHT22;40693;43.884;20.340;2022-10-16T01:43:09;307.60;2304.00
54796;DHT22;40693;43.884;20.340;2022-10-16T01:45:36;307.60;2304.00
54796;DHT22;40693;43.884;20.340;2022-10-16T01:48:04;307.60;2304.00
54796;DHT22;40693;43.884;20.340;2022-10-16T01:50:35;307.60;2304.00
54796;DHT22;40693;43.884;20.340;2022-10-16T01:53:04;307.60;2304.00
54796;DHT22;40693;43.884;20.340;2022-10-16T01:55:34;307.60;2304.00
54796;DHT22;40693;43.884;20.340;2022-10-16T01:58:02;307.70;2304.00
54796;DHT22;40693;43.884;20.340;2022-10-16T02:00:30;307.80;2304.00
54796;DHT22;40693;43.884;20.340;2022-10-16T02:02:57;307.80;2304.00
54796;DHT22;40693;43.884;20.340;2022-10-16T02:05:32;307.80;2304.00
54796;DHT22;40693;43.884;20.340;2022-10-16T02:07:59;307.90;2304.00
54796;DHT22;40693;43.884;20.340;2022-10-16T02:10:25;307.90;2304.00
54796;DHT22;40693;43.884;20.340;2022-10-16T02:13:22;308.00;2304.00
54796;DHT22;40693;43.884;20.340;2022-10-16T02:15:49;307.90;2304.00
54796;DHT22;40693;43.884;20.340;2022-10-16T02:18:15;308.00;2304.00
54796;DHT22;40693;43.884;20.340;2022-10-16T02:21:26;308.00;2304.00
54796;DHT22;40693;43.884;20.340;2022-10-16T02:26:31;308.10;2304.00
54796;DHT22;40693;43.884;20.340;2022-10-16T02:29:05;308.00;2304.00
54796;DHT22;40693;43.884;20.340;2022-10-16T02:31:34;308.10;2304.00
54796;DHT22;40693;43.884;20.340;2022-10-16T02:34:02;308.10;2304.00
54796;DHT22;40693;43.884;20.340;2022-10-16T02:36:30;308.10;2304.00
54796;DHT22;40693;43.884;20.340;2022-10-16T02:38:58;308.10;2304.00
54796;DHT22;40693;43.884;20.340;2022-10-16T02:41:26;308.10;2304.00
54796;DHT22;40693;43.884;20.340;2022-10-16T02:43:52;332.80;2329.60
54796;DHT22;40693;43.884;20.340;2022-10-16T02:46:18;308.10;2304.00
54796;DHT22;40693;43.884;20.340;2022-10-16T02:48:44;308.10;2304.00
54796;DHT22;40693;43.884;20.340;2022-10-16T02:51:10;308.00;2304.00
54796;DHT22;40693;43.884;20.340;2022-10-16T02:53:35;308.00;2304.00
54796;DHT22;40693;43.884;20.340;2022-10-16T02:56:01;308.00;2304.00
54796;DHT22;40693;43.884;20.340;2022-10-16T02:58:27;308.10;2304.00
54796;DHT22;40693;43.884;20.340;2022-10-16T03:00:53;308.10;2304.00
54796;DHT22;40693;43.884;20.340;2022-10-16T03:03:18;308.00;2304.00
54796;DHT22;40693;43.884;20.340;2022-10-16T03:05:44;308.00;2304.00
54796;DHT22;40693;43.884;20.340;2022-10-16T03:08:13;308.00;2304.00
54796;DHT22;40693;43.884;20.340;2022-10-16T03:10:39;308.00;2304.00
54796;DHT22;40693;43.884;20.340;2022-10-16T03:13:05;307.90;2304.00
54796;DHT22;40693;43.884;20.340;2022-10-16T03:15:31;307.90;2304.00
54796;DHT22;40693;43.884;20.340;2022-10-16T03:18:00;307.80;2304.00
54796;DHT22;40693;43.884;20.340;2022-10-16T03:20:26;307.80;2304.00
54796;DHT22;40693;43.884;20.340;2022-10-16T03:22:52;307.70;2304.00
54796;DHT22;40693;43.884;20.340;2022-10-16T03:25:18;307.80;2304.00
54796;DHT22;40693;43.884;20.340;2022-10-16T03:27:43;307.80;2304.00
54796;DHT22;40693;43.884;20.340;2022-10-16T03:30:09;307.80;2304.00
54796;DHT22;40693;43.884;20.340;2022-10-16T03:32:36;307.70;2304.00
54796;DHT22;40693;43.884;20.340;2022-10-16T03:35:02;307.70;2304.00
54796;DHT22;40693;43.884;20.340;2022-10-16T03:37:28;307.70;2304.00
54796;DHT22;40693;43.884;20.340;2022-10-16T03:39:53;307.70;2304.00
54796;DHT22;40693;43.884;20.340;2022-10-16T03:42:19;307.60;2304.00
54796;DHT22;40693;43.884;20.340;2022-10-16T03:44:45;307.60;2304.00
54796;DHT22;40693;43.884;20.340;2022-10-16T03:47:11;307.60;2304.00
54796;DHT22;40693;43.884;20.340;2022-10-16T03:49:36;307.50;2304.00
54796;DHT22;40693;43.884;20.340;2022-10-16T03:52:02;307.50;2304.00
54796;DHT22;40693;43.884;20.340;2022-10-16T03:54:28;307.50;2304.00
54796;DHT22;40693;43.884;20.340;2022-10-16T03:56:54;307.40;2304.00
54796;DHT22;40693;43.884;20.340;2022-10-16T03:59:19;307.40;2304.00
54796;DHT22;40693;43.884;20.340;2022-10-16T04:01:45;307.40;2304.00
54796;DHT22;40693;43.884;20.340;2022-10-16T04:04:11;307.40;2304.00
54796;DHT22;40693;43.884;20.340;2022-10-16T04:06:37;307.40;2304.00
54796;DHT22;40693;43.884;20.340;2022-10-16T04:09:02;307.30;2304.00
54796;DHT22;40693;43.884;20.340;2022-10-16T04:11:29;307.30;2304.00
54796;DHT22;40693;43.884;20.340;2022-10-16T04:13:55;307.30;2304.00
54796;DHT22;40693;43.884;20.340;2022-10-16T04:16:21;307.20;2304.00
54796;DHT22;40693;43.884;20.340;2022-10-16T04:18:46;307.20;2304.00
54796;DHT22;40693;43.884;20.340;2022-10-16T04:21:12;307.20;2304.00
54796;DHT22;40693;43.884;20.340;2022-10-16T04:23:38;282.50;2278.40
54796;DHT22;40693;43.884;20.340;2022-10-16T04:26:03;282.50;2278.40
54796;DHT22;40693;43.884;20.340;2022-10-16T04:28:29;282.50;2278.40
54796;DHT22;40693;43.884;20.340;2022-10-16T04:30:55;282.50;2278.40
54796;DHT22;40693;43.884;20.340;2022-10-16T04:33:21;282.50;2278.40
54796;DHT22;40693;43.884;20.340;2022-10-16T04:35:47;282.50;2278.40
54796;DHT22;40693;43.884;20.340;2022-10-16T04:38:12;282.50;2278.40
54796;DHT22;40693;43.884;20.340;2022-10-16T04:40:38;282.50;2278.40
54796;DHT22;40693;43.884;20.340;2022-10-16T04:43:04;282.50;2278.40
54796;DHT22;40693;43.884;20.340;2022-10-16T04:45:31;282.50;2278.40
54796;DHT22;40693;43.884;20.340;2022-10-16T04:48:00;282.40;2278.40
54796;DHT22;40693;43.884;20.340;2022-10-16T04:50:26;282.40;2278.40
54796;DHT22;40693;43.884;20.340;2022-10-16T04:52:51;282.30;2278.40
54796;DHT22;40693;43.884;20.340;2022-10-16T04:55:17;282.30;2278.40
54796;DHT22;40693;43.884;20.340;2022-10-16T04:57:43;282.30;2278.40
54796;DHT22;40693;43.884;20.340;2022-10-16T05:00:09;282.20;2278.40
54796;DHT22;40693;43.884;20.340;2022-10-16T05:02:35;282.20;2278.40
54796;DHT22;40693;43.884;20.340;2022-10-16T05:05:00;282.20;2278.40
54796;DHT22;40693;43.884;20.340;2022-10-16T05:07:26;282.20;2278.40
54796;DHT22;40693;43.884;20.340;2022-10-16T05:09:52;282.20;2278.40
54796;DHT22;40693;43.884;20.340;2022-10-16T05:12:18;282.20;2278.40
54796;DHT22;40693;43.884;20.340;2022-10-16T05:14:44;282.20;2278.40
54796;DHT22;40693;43.884;20.340;2022-10-16T05:17:10;282.10;2278.40
54796;DHT22;40693;43.884;20.340;2022-10-16T05:19:35;282.10;2278.40
54796;DHT22;40693;43.884;20.340;2022-10-16T05:22:01;282.10;2278.40
54796;DHT22;40693;43.884;20.340;2022-10-16T05:24:27;282.10;2278.40
54796;DHT22;40693;43.884;20.340;2022-10-16T05:26:53;282.10;2278.40
54796;DHT22;40693;43.884;20.340;2022-10-16T05:29:19;282.00;2278.40
54796;DHT22;40693;43.884;20.340;2022-10-16T05:31:45;282.00;2278.40
54796;DHT22;40693;43.884;20.340;2022-10-16T05:34:11;282.10;2278.40
54796;DHT22;40693;43.884;20.340;2022-10-16T05:36:36;282.10;2278.40
54796;DHT22;40693;43.884;20.340;2022-10-16T05:39:03;282.10;2278.40
54796;DHT22;40693;43.884;20.340;2022-10-16T05:41:28;282.20;2278.40
54796;DHT22;40693;43.884;20.340;2022-10-16T05:43:54;282.20;2278.40
54796;DHT22;40693;43.884;20.340;2022-10-16T05:46:20;282.20;2278.40
54796;DHT22;40693;43.884;20.340;2022-10-16T05:48:46;282.30;2278.40
54796;DHT22;40693;43.884;20.340;2022-10-16T05:51:13;282.30;2278.40
54796;DHT22;40693;43.884;20.340;2022-10-16T05:53:40;282.40;2278.40
54796;DHT22;40693;43.884;20.340;2022-10-16T05:56:08;282.40;2278.40
54796;DHT22;40693;43.884;20.340;2022-10-16T05:58:35;282.50;2278.40
54796;DHT22;40693;43.884;20.340;2022-10-16T06:01:06;282.50;2278.40
54796;DHT22;40693;43.884;20.340;2022-10-16T06:03:33;282.50;2278.40
54796;DHT22;40693;43.884;20.340;2022-10-16T06:05:59;307.20;2304.00
54796;DHT22;40693;43.884;20.340;2022-10-16T06:08:24;307.20;2304.00
54796;DHT22;40693;43.884;20.340;2022-10-16T06:11:02;307.20;2304.00
54796;DHT22;40693;43.884;20.340;2022-10-16T06:13:28;307.20;2304.00
54796;DHT22;40693;43.884;20.340;2022-10-16T06:15:58;307.20;2304.00
54796;DHT22;40693;43.884;20.340;2022-10-16T06:18:24;307.20;2304.00
54796;DHT22;40693;43.884;20.340;2022-10-16T06:20:50;307.20;2304.00
54796;DHT22;40693;43.884;20.340;2022-10-16T06:23:16;282.50;2278.40
54796;DHT22;40693;43.884;20.340;2022-10-16T06:25:41;282.50;2278.40
54796;DHT22;40693;43.884;20.340;2022-10-16T06:28:07;307.20;2304.00
54796;DHT22;40693;43.884;20.340;2022-10-16T06:30:33;307.20;2304.00
54796;DHT22;40693;43.884;20.340;2022-10-16T06:32:58;307.30;2304.00
54796;DHT22;40693;43.884;20.340;2022-10-16T06:35:24;307.40;2304.00
54796;DHT22;40693;43.884;20.340;2022-10-16T06:37:52;307.50;2304.00
54796;DHT22;40693;43.884;20.340;2022-10-16T06:40:17;307.60;2304.00
54796;DHT22;40693;43.884;20.340;2022-10-16T06:42:43;307.70;2304.00
54796;DHT22;40693;43.884;20.340;2022-10-16T06:45:09;307.60;2304.00
54796;DHT22;40693;43.884;20.340;2022-10-16T06:47:35;307.90;2304.00
54796;DHT22;40693;43.884;20.340;2022-10-16T06:50:01;307.90;2304.00
54796;DHT22;40693;43.884;20.340;2022-10-16T06:52:30;308.00;2304.00
54796;DHT22;40693;43.884;20.340;2022-10-16T06:54:56;308.10;2304.00
54796;DHT22;40693;43.884;20.340;2022-10-16T06:57:21;332.80;2329.60
54796;DHT22;40693;43.884;20.340;2022-10-16T06:59:48;332.90;2329.60
54796;DHT22;40693;43.884;20.340;2022-10-16T07:02:14;333.00;2329.60
54796;DHT22;40693;43.884;20.340;2022-10-16T07:04:40;333.10;2329.60
54796;DHT22;40693;43.884;20.340;2022-10-16T07:07:06;333.10;2329.60
54796;DHT22;40693;43.884;20.340;2022-10-16T07:09:31;333.20;2329.60
54796;DHT22;40693;43.884;20.340;2022-10-16T07:11:57;333.30;2329.60
54796;DHT22;40693;43.884;20.340;2022-10-16T07:14:23;333.40;2329.60
54796;DHT22;40693;43.884;20.340;2022-10-16T07:16:49;333.40;2329.60
54796;DHT22;40693;43.884;20.340;2022-10-16T07:19:15;333.40;2329.60
54796;DHT22;40693;43.884;20.340;2022-10-16T07:21:43;333.50;2329.60
54796;DHT22;40693;43.884;20.340;2022-10-16T07:24:16;333.70;2329.60
54796;DHT22;40693;43.884;20.340;2022-10-16T07:26:44;333.70;2329.60
54796;DHT22;40693;43.884;20.340;2022-10-16T07:29:17;358.40;2329.60
54796;DHT22;40693;43.884;20.340;2022-10-16T07:31:43;358.50;2329.60
54796;DHT22;40693;43.884;20.340;2022-10-16T07:34:11;358.70;2329.60
54796;DHT22;40693;43.884;20.340;2022-10-16T07:36:37;358.80;2329.60
54796;DHT22;40693;43.884;20.340;2022-10-16T07:39:03;358.90;2329.60
54796;DHT22;40693;43.884;20.340;2022-10-16T07:41:30;359.10;2329.60
54796;DHT22;40693;43.884;20.340;2022-10-16T07:43:58;359.20;2329.60
54796;DHT22;40693;43.884;20.340;2022-10-16T07:46:27;384.00;2329.60
54796;DHT22;40693;43.884;20.340;2022-10-16T07:48:53;384.10;2329.60
54796;DHT22;40693;43.884;20.340;2022-10-16T07:51:22;384.30;2329.60
54796;DHT22;40693;43.884;20.340;2022-10-16T07:53:48;384.40;2329.60
54796;DHT22;40693;43.884;20.340;2022-10-16T07:56:15;384.60;2329.60
54796;DHT22;40693;43.884;20.340;2022-10-16T07:58:41;384.80;2329.60
54796;DHT22;40693;43.884;20.340;2022-10-16T08:01:09;384.90;2329.60
54796;DHT22;40693;43.884;20.340;2022-10-16T08:03:36;409.70;2355.20
54796;DHT22;40693;43.884;20.340;2022-10-16T08:06:02;409.90;2355.20
54796;DHT22;40693;43.884;20.340;2022-10-16T08:08:29;410.00;2355.20
54796;DHT22;40693;43.884;20.340;2022-10-16T08:10:55;410.20;2355.20
54796;DHT22;40693;43.884;20.340;2022-10-16T08:13:21;410.30;2355.20
54796;DHT22;40693;43.884;20.340;2022-10-16T08:15:47;410.50;2355.20
54796;DHT22;40693;43.884;20.340;2022-10-16T08:18:14;435.20;2355.20
54796;DHT22;40693;43.884;20.340;2022-10-16T08:20:40;435.30;2355.20
54796;DHT22;40693;43.884;20.340;2022-10-16T08:23:07;435.50;2355.20
54796;DHT22;40693;43.884;20.340;2022-10-16T08:25:36;435.60;2355.20
54796;DHT22;40693;43.884;20.340;2022-10-16T08:28:08;435.70;2355.20
54796;DHT22;40693;43.884;20.340;2022-10-16T08:30:34;435.80;2355.20
54796;DHT22;40693;43.884;20.340;2022-10-16T08:33:00;435.80;2355.20
54796;DHT22;40693;43.884;20.340;2022-10-16T08:35:25;436.00;2355.20
54796;DHT22;40693;43.884;20.340;2022-10-16T08:37:51;436.10;2355.20
54796;DHT22;40693;43.884;20.340;2022-10-16T08:40:24;436.10;2355.20
54796;DHT22;40693;43.884;20.340;2022-10-16T08:43:12;436.10;2355.20
54796;DHT22;40693;43.884;20.340;2022-10-16T08:45:44;460.90;2380.80
54796;DHT22;40693;43.884;20.340;2022-10-16T08:50:56;461.30;2380.80
54796;DHT22;40693;43.884;20.340;2022-10-16T08:53:46;461.30;2380.80
54796;DHT22;40693;43.884;20.340;2022-10-16T08:56:15;461.50;2380.80
54796;DHT22;40693;43.884;20.340;2022-10-16T08:58:42;461.60;2380.80
54796;DHT22;40693;43.884;20.340;2022-10-16T09:01:13;461.70;2380.80
54796;DHT22;40693;43.884;20.340;2022-10-16T09:12:21;486.70;2380.80
54796;DHT22;40693;43.884;20.340;2022-10-16T09:22:44;487.10;2380.80
54796;DHT22;40693;43.884;20.340;2022-10-16T09:25:12;487.20;2380.80
54796;DHT22;40693;43.884;20.340;2022-10-16T09:27:38;487.20;2380.80
54796;DHT22;40693;43.884;20.340;2022-10-16T09:30:16;487.30;2380.80
54796;DHT22;40693;43.884;20.340;2022-10-16T09:32:43;512.10;2380.80
54796;DHT22;40693;43.884;20.340;2022-10-16T09:35:33;512.20;2380.80
54796;DHT22;40693;43.884;20.340;2022-10-16T09:38:01;512.40;2380.80
54796;DHT22;40693;43.884;20.340;2022-10-16T09:43:22;512.80;2278.40
54796;DHT22;40693;43.884;20.340;2022-10-16T09:45:58;512.90;2252.80
54796;DHT22;40693;43.884;20.340;2022-10-16T09:48:35;537.70;2329.60
54796;DHT22;40693;43.884;20.340;2022-10-16T09:51:04;537.80;2227.20
54796;DHT22;40693;43.884;20.340;2022-10-16T09:53:45;538.00;2201.60
54796;DHT22;40693;43.884;20.340;2022-10-16T09:56:20;538.20;2150.40
54796;DHT22;40693;43.884;20.340;2022-10-16T09:58:51;538.30;2201.60
54796;DHT22;40693;43.884;20.340;2022-10-16T10:01:19;538.50;2201.60
54796;DHT22;40693;43.884;20.340;2022-10-16T10:03:45;538.20;2176.00
54796;DHT22;40693;43.884;20.340;2022-10-16T10:06:23;563.60;2150.40
54796;DHT22;40693;43.884;20.340;2022-10-16T10:11:41;563.80;2048.00
54796;DHT22;40693;43.884;20.340;2022-10-16T10:19:37;564.00;1971.20
54796;DHT22;40693;43.884;20.340;2022-10-16T10:22:24;564.00;1996.80
54796;DHT22;40693;43.884;20.340;2022-10-16T10:25:00;564.10;1996.80
54796;DHT22;40693;43.884;20.340;2022-10-16T10:27:36;588.90;1996.80
54796;DHT22;40693;43.884;20.340;2022-10-16T10:30:13;588.90;1971.20
54796;DHT22;40693;43.884;20.340;2022-10-16T10:33:07;589.20;2048.00
54796;DHT22;40693;43.884;20.340;2022-10-16T10:44:19;589.40;1894.40
54796;DHT22;40693;43.884;20.340;2022-10-16T10:52:47;614.60;1894.40
54796;DHT22;40693;43.884;20.340;2022-10-16T10:55:33;614.70;1894.40
54796;DHT22;40693;43.884;20.340;2022-10-16T11:10:07;615.20;1740.80
54796;DHT22;40693;43.884;20.340;2022-10-16T11:12:36;615.30;1715.20
54796;DHT22;40693;43.884;20.340;2022-10-16T11:15:17;615.30;1766.40
54796;DHT22;40693;43.884;20.340;2022-10-16T11:22:52;640.40;1740.80
54796;DHT22;40693;43.884;20.340;2022-10-16T11:33:22;640.20;1689.60
54796;DHT22;40693;43.884;20.340;2022-10-16T11:35:55;640.20;1715.20
54796;DHT22;40693;43.884;20.340;2022-10-16T11:41:29;640.10;1715.20
54796;DHT22;40693;43.884;20.340;2022-10-16T11:44:34;640.30;1740.80
54796;DHT22;40693;43.884;20.340;2022-10-16T11:49:32;640.60;1740.80
54796;DHT22;40693;43.884;20.340;2022-10-16T11:54:59;640.70;1740.80
54796;DHT22;40693;43.884;20.340;2022-10-16T11:57:31;640.70;1689.60
54796;DHT22;40693;43.884;20.340;2022-10-16T12:08:13;640.50;1715.20
54796;DHT22;40693;43.884;20.340;2022-10-16T12:10:41;640.60;1740.80
54796;DHT22;40693;43.884;20.340;2022-10-16T12:13:30;640.70;1766.40
54796;DHT22;40693;43.884;20.340;2022-10-16T12:18:38;665.60;1766.40
54796;DHT22;40693;43.884;20.340;2022-10-16T12:21:05;665.70;1715.20
54796;DHT22;40693;43.884;20.340;2022-10-16T12:23:36;665.60;1715.20
54796;DHT22;40693;43.884;20.340;2022-10-16T12:26:02;665.70;1766.40
54796;DHT22;40693;43.884;20.340;2022-10-16T12:28:30;665.70;1740.80
54796;DHT22;40693;43.884;20.340;2022-10-16T12:31:02;665.80;1689.60
54796;DHT22;40693;43.884;20.340;2022-10-16T12:33:30;665.80;1689.60
54796;DHT22;40693;43.884;20.340;2022-10-16T12:36:06;666.00;1715.20
54796;DHT22;40693;43.884;20.340;2022-10-16T12:38:51;666.00;1664.00
54796;DHT22;40693;43.884;20.340;2022-10-16T12:43:53;666.00;1766.40
54796;DHT22;40693;43.884;20.340;2022-10-16T12:46:24;666.10;1715.20
54796;DHT22;40693;43.884;20.340;2022-10-16T12:48:50;665.90;1689.60
54796;DHT22;40693;43.884;20.340;2022-10-16T12:51:35;665.80;1664.00
54796;DHT22;40693;43.884;20.340;2022-10-16T13:06:20;666.50;1689.60
54796;DHT22;40693;43.884;20.340;2022-10-16T13:11:48;691.40;1664.00
54796;DHT22;40693;43.884;20.340;2022-10-16T13:17:45;691.30;1612.80
54796;DHT22;40693;43.884;20.340;2022-10-16T13:22:51;666.30;1612.80
54796;DHT22;40693;43.884;20.340;2022-10-16T13:27:55;666.20;1638.40
54796;DHT22;40693;43.884;20.340;2022-10-16T13:30:27;666.10;1638.40
54796;DHT22;40693;43.884;20.340;2022-10-16T13:35:37;666.20;1664.00
54796;DHT22;40693;43.884;20.340;2022-10-16T13:38:14;666.10;1664.00
54796;DHT22;40693;43.884;20.340;2022-10-16T13:40:57;666.20;1664.00
54796;DHT22;40693;43.884;20.340;2022-10-16T13:43:50;666.20;1638.40
54796;DHT22;40693;43.884;20.340;2022-10-16T13:46:19;666.00;1638.40
54796;DHT22;40693;43.884;20.340;2022-10-16T13:48:59;665.80;1587.20
54796;DHT22;40693;43.884;20.340;2022-10-16T13:51:26;665.80;1612.80
54796;DHT22;40693;43.884;20.340;2022-10-16T13:53:52;665.80;1587.20
54796;DHT22;40693;43.884;20.340;2022-10-16T13:56:20;665.70;1612.80
54796;DHT22;40693;43.884;20.340;2022-10-16T13:58:57;665.70;1587.20
54796;DHT22;40693;43.884;20.340;2022-10-16T14:01:26;640.90;1612.80
54796;DHT22;40693;43.884;20.340;2022-10-16T14:04:04;640.70;1612.80
54796;DHT22;40693;43.884;20.340;2022-10-16T14:06:31;640.70;1612.80
54796;DHT22;40693;43.884;20.340;2022-10-16T14:09:13;640.60;1638.40
54796;DHT22;40693;43.884;20.340;2022-10-16T14:11:53;640.60;1638.40
54796;DHT22;40693;43.884;20.340;2022-10-16T14:14:19;640.60;1638.40
54796;DHT22;40693;43.884;20.340;2022-10-16T14:16:45;640.60;1612.80
54796;DHT22;40693;43.884;20.340;2022-10-16T14:19:28;640.70;1587.20
54796;DHT22;40693;43.884;20.340;2022-10-16T14:21:54;640.70;1587.20
54796;DHT22;40693;43.884;20.340;2022-10-16T14:26:57;640.60;1612.80
54796;DHT22;40693;43.884;20.340;2022-10-16T14:29:24;640.60;1612.80
54796;DHT22;40693;43.884;20.340;2022-10-16T14:32:02;640.60;1638.40
54796;DHT22;40693;43.884;20.340;2022-10-16T14:34:31;640.60;1638.40
54796;DHT22;40693;43.884;20.340;2022-10-16T14:37:00;640.50;1587.20
54796;DHT22;40693;43.884;20.340;2022-10-16T14:39:32;640.60;1612.80
54796;DHT22;40693;43.884;20.340;2022-10-16T14:41:58;640.50;1612.80
54796;DHT22;40693;43.884;20.340;2022-10-16T14:44:29;640.40;1612.80
54796;DHT22;40693;43.884;20.340;2022-10-16T14:46:56;640.50;1612.80
54796;DHT22;40693;43.884;20.340;2022-10-16T14:49:26;640.70;1638.40
54796;DHT22;40693;43.884;20.340;2022-10-16T14:51:53;640.30;1638.40
54796;DHT22;40693;43.884;20.340;2022-10-16T14:54:19;640.30;1638.40
54796;DHT22;40693;43.884;20.340;2022-10-16T14:56:55;640.30;1638.40
54796;DHT22;40693;43.884;20.340;2022-10-16T14:59:40;640.30;1638.40
54796;DHT22;40693;43.884;20.340;2022-10-16T15:02:30;640.30;1638.40
54796;DHT22;40693;43.884;20.340;2022-10-16T15:04:57;640.30;1638.40
54796;DHT22;40693;43.884;20.340;2022-10-16T15:07:24;640.20;1664.00
54796;DHT22;40693;43.884;20.340;2022-10-16T15:09:50;640.10;1664.00
54796;DHT22;40693;43.884;20.340;2022-10-16T15:12:17;640.10;1664.00
54796;DHT22;40693;43.884;20.340;2022-10-16T15:14:43;640.00;1689.60
54796;DHT22;40693;43.884;20.340;2022-10-16T15:17:10;640.10;1689.60
54796;DHT22;40693;43.884;20.340;2022-10-16T15:19:36;640.10;1715.20
54796;DHT22;40693;43.884;20.340;2022-10-16T15:22:02;640.10;1689.60
54796;DHT22;40693;43.884;20.340;2022-10-16T15:24:28;640.00;1715.20
54796;DHT22;40693;43.884;20.340;2022-10-16T15:26:54;640.00;1715.20
54796;DHT22;40693;43.884;20.340;2022-10-16T15:29:19;640.00;1740.80
54796;DHT22;40693;43.884;20.340;2022-10-16T15:31:45;615.30;1766.40
54796;DHT22;40693;43.884;20.340;2022-10-16T15:34:13;615.20;1792.00
54796;DHT22;40693;43.884;20.340;2022-10-16T15:36:40;615.00;1817.60
54796;DHT22;40693;43.884;20.340;2022-10-16T15:39:14;615.00;1766.40
54796;DHT22;40693;43.884;20.340;2022-10-16T15:41:40;614.90;1766.40
54796;DHT22;40693;43.884;20.340;2022-10-16T15:44:07;614.80;1843.20
54796;DHT22;40693;43.884;20.340;2022-10-16T15:46:33;614.70;1868.80
54796;DHT22;40693;43.884;20.340;2022-10-16T15:49:00;614.60;1868.80
54796;DHT22;40693;43.884;20.340;2022-10-16T15:51:27;614.50;1868.80
54796;DHT22;40693;43.884;20.340;2022-10-16T15:53:56;589.70;1843.20
54796;DHT22;40693;43.884;20.340;2022-10-16T15:56:23;589.60;1868.80
54796;DHT22;40693;43.884;20.340;2022-10-16T15:58:51;589.50;1894.40
54796;DHT22;40693;43.884;20.340;2022-10-16T16:01:17;589.40;1920.00
54796;DHT22;40693;43.884;20.340;2022-10-16T16:03:43;589.30;1920.00
54796;DHT22;40693;43.884;20.340;2022-10-16T16:06:12;589.30;1920.00
54796;DHT22;40693;43.884;20.340;2022-10-16T16:08:38;589.20;1945.60
54796;DHT22;40693;43.884;20.340;2022-10-16T16:11:11;589.00;1971.20
54796;DHT22;40693;43.884;20.340;2022-10-16T16:13:37;588.90;1996.80
54796;DHT22;40693;43.884;20.340;2022-10-16T16:16:10;588.80;1996.80
54796;DHT22;40693;43.884;20.340;2022-10-16T16:18:36;564.00;1996.80
54796;DHT22;40693;43.884;20.340;2022-10-16T16:21:04;563.80;2022.40
54796;DHT22;40693;43.884;20.340;2022-10-16T16:23:31;563.80;2048.00
54796;DHT22;40693;43.884;20.340;2022-10-16T16:26:11;563.70;2048.00
54796;DHT22;40693;43.884;20.340;2022-10-16T16:28:38;563.50;2073.60
54796;DHT22;40693;43.884;20.340;2022-10-16T16:31:05;563.40;2073.60
54796;DHT22;40693;43.884;20.340;2022-10-16T16:33:31;563.20;2099.20
54796;DHT22;40693;43.884;20.340;2022-10-16T16:36:04;538.40;2073.60
54796;DHT22;40693;43.884;20.340;2022-10-16T16:38:32;538.20;2099.20
54796;DHT22;40693;43.884;20.340;2022-10-16T16:40:58;538.10;2099.20
54796;DHT22;40693;43.884;20.340;2022-10-16T16:43:25;538.00;2124.80
54796;DHT22;40693;43.884;20.340;2022-10-16T16:45:53;537.70;2124.80
54796;DHT22;40693;43.884;20.340;2022-10-16T16:48:19;537.60;2150.40
54796;DHT22;40693;43.884;20.340;2022-10-16T16:50:45;512.80;2150.40
54796;DHT22;40693;43.884;20.340;2022-10-16T16:53:10;512.60;2176.00
54796;DHT22;40693;43.884;20.340;2022-10-16T16:55:36;512.40;2176.00
54796;DHT22;40693;43.884;20.340;2022-10-16T16:58:02;512.40;2201.60
54796;DHT22;40693;43.884;20.340;2022-10-16T17:00:29;512.30;2201.60
54796;DHT22;40693;43.884;20.340;2022-10-16T17:02:56;512.10;2227.20